Time;durP1;ratioP1;P1;durP2;ratioP2;P2;SDS_P1;SDS_P2;PMS_P1;PMS_P2;Temp;Humidity;BMP_temperature;BMP_pressure;BME280_temperature;BME280_humidity;BME280_pressure;Samples;Min_cycle;Max_cycle;Signal;HPM_P1;HPM_P2
2022/10/26 00:01:18;;;;;;;20.23;11.20;;;;;;;14.30;68.60;100692.41;5072977;28;20024;-70
2022/10/26 00:03:45;;;;;;;20.90;10.23;;;;;;;14.26;69.66;100675.00;5073187;28;20035;-70
2022/10/26 00:06:18;;;;;;;17.85;11.48;;;;;;;14.33;69.83;100687.31;5073109;28;20032;-70
2022/10/26 00:08:45;;;;;;;22.35;10.95;;;;;;;14.40;70.10;100707.41;5072820;28;20062;-69
2022/10/26 00:11:11;;;;;;;21.02;11.38;;;;;;;14.48;71.56;100702.38;5072691;28;20031;-71
2022/10/26 00:13:38;;;;;;;21.38;10.82;;;;;;;14.45;70.92;100698.84;5072795;28;20025;-70
2022/10/26 00:16:15;;;;;;;22.88;10.82;;;;;;;14.50;71.36;100705.88;5073036;28;20397;-69
2022/10/26 00:18:41;;;;;;;21.50;10.73;;;;;;;14.31;71.94;100670.78;5040518;28;20111;-70
2022/10/26 00:21:08;;;;;;;17.35;10.85;;;;;;;14.50;71.93;100705.03;5072708;28;20051;-70
2022/10/26 00:23:34;;;;;;;22.30;11.35;;;;;;;14.49;71.82;100705.84;5072653;28;20021;-70
2022/10/26 00:26:00;;;;;;;21.13;11.10;;;;;;;14.19;71.35;100660.09;5072654;28;20074;-70
2022/10/26 00:28:26;;;;;;;21.48;11.73;;;;;;;14.27;71.72;100692.34;5072519;28;20050;-71
2022/10/26 00:30:52;;;;;;;22.67;11.32;;;;;;;13.86;71.96;100648.03;5072920;28;20024;-71
2022/10/26 00:33:18;;;;;;;23.17;11.60;;;;;;;13.85;71.57;100674.81;5071953;28;20017;-70
2022/10/26 00:36:03;;;;;;;24.27;11.73;;;;;;;13.91;71.83;100695.72;5072506;28;20029;-70
2022/10/26 00:38:29;;;;;;;21.17;11.73;;;;;;;13.94;71.96;100682.81;5071420;28;20037;-70
2022/10/26 00:40:54;;;;;;;25.38;12.13;;;;;;;14.07;72.13;100702.22;5072586;28;20540;-71
2022/10/26 00:43:20;;;;;;;18.98;11.32;;;;;;;14.12;72.41;100697.13;5072544;28;20098;-73
2022/10/26 00:45:48;;;;;;;19.25;11.25;;;;;;;14.08;71.77;100691.88;5072134;28;20032;-71
2022/10/26 00:48:30;;;;;;;24.55;11.68;;;;;;;14.12;71.15;100692.81;5072369;28;20104;-72
2022/10/26 00:50:59;;;;;;;20.63;11.55;;;;;;;14.01;71.35;100684.75;5072046;28;20025;-73
2022/10/26 00:53:45;;;;;;;23.05;11.07;;;;;;;14.14;71.74;100700.66;5072170;28;20047;-69
2022/10/26 00:56:10;;;;;;;16.63;11.95;;;;;;;13.91;71.40;100677.56;5015545;28;20053;-71
2022/10/26 00:58:37;;;;;;;22.27;11.93;;;;;;;14.01;71.97;100684.75;5029759;28;20042;-71
2022/10/26 01:01:02;;;;;;;19.52;11.82;;;;;;;14.01;71.94;100682.16;5029435;28;20458;-71
2022/10/26 01:03:30;;;;;;;17.42;12.73;;;;;;;13.91;71.86;100685.34;5029706;28;20029;-71
2022/10/26 01:05:56;;;;;;;21.83;11.45;;;;;;;13.62;73.91;100689.72;5029604;28;20072;-69
2022/10/26 01:08:23;;;;;;;24.23;12.35;;;;;;;13.05;76.31;100637.97;5029426;28;20472;-71
2022/10/26 01:10:50;;;;;;;21.60;11.60;;;;;;;13.23;77.06;100686.91;5012821;28;20040;-71
2022/10/26 01:13:17;;;;;;;19.63;12.43;;;;;;;13.09;77.33;100647.59;5029302;28;20041;-72
2022/10/26 01:15:54;;;;;;;17.77;12.18;;;;;;;13.48;77.41;100689.34;5029177;28;20042;-71
2022/10/26 01:18:42;;;;;;;21.05;12.10;;;;;;;13.35;77.89;100694.16;5029235;28;20033;-71
2022/10/26 01:21:38;;;;;;;16.67;11.05;;;;;;;12.73;79.51;100629.22;4970647;28;20059;-71
2022/10/26 01:24:43;;;;;;;21.67;11.52;;;;;;;13.13;80.15;100700.41;4970276;28;20045;-71
2022/10/26 01:27:26;;;;;;;21.40;12.32;;;;;;;12.81;79.48;100622.59;4931159;29;20048;-69
2022/10/26 01:30:10;;;;;;;23.00;12.30;;;;;;;13.33;79.63;100688.03;4951081;29;20038;-72
2022/10/26 01:32:44;;;;;;;18.50;11.40;;;;;;;13.44;79.18;100685.78;4950654;29;20531;-71
2022/10/26 01:35:18;;;;;;;21.73;13.13;;;;;;;13.45;79.23;100689.28;4950862;29;20061;-72
2022/10/26 01:38:09;;;;;;;20.90;12.20;;;;;;;13.54;78.79;100692.13;4950869;29;20039;-70
2022/10/26 01:41:00;;;;;;;20.73;12.70;;;;;;;13.58;78.56;100696.53;4950407;29;20039;-69
2022/10/26 01:43:30;;;;;;;18.58;12.45;;;;;;;13.23;77.36;100650.59;4893216;29;20508;-71
2022/10/26 01:45:57;;;;;;;19.88;12.07;;;;;;;13.38;76.88;100695.97;4893487;29;20040;-71
2022/10/26 01:48:24;;;;;;;17.98;11.38;;;;;;;13.28;77.18;100689.59;4893654;29;20037;-73
2022/10/26 01:50:53;;;;;;;22.73;11.85;;;;;;;13.27;77.69;100699.13;4893654;29;20044;-76
2022/10/26 01:53:19;;;;;;;21.52;12.93;;;;;;;13.13;77.28;100692.63;4893284;29;20127;-72
2022/10/26 01:55:44;;;;;;;20.38;12.82;;;;;;;13.19;75.63;100708.38;4881656;29;20056;-74
2022/10/26 01:58:58;;;;;;;19.95;11.48;;;;;;;13.02;75.96;100694.91;4892129;29;20488;-71
2022/10/26 02:01:32;;;;;;;17.27;12.13;;;;;;;12.75;77.22;100688.03;4806823;29;20063;-69
2022/10/26 02:04:13;;;;;;;25.20;12.00;;;;;;;12.73;77.95;100704.34;4823594;29;20037;-71
2022/10/26 02:06:58;;;;;;;21.67;12.85;;;;;;;12.73;78.41;100683.63;4856288;29;20178;-71
2022/10/26 02:10:00;;;;;;;22.27;13.48;;;;;;;12.93;80.02;100694.63;4841194;29;20526;-71
2022/10/26 02:12:32;;;;;;;20.80;13.23;;;;;;;12.84;80.77;100681.38;4856292;29;20056;-70
2022/10/26 02:15:17;;;;;;;27.23;14.18;;;;;;;12.58;81.90;100647.75;4856062;29;20042;-72
2022/10/26 02:18:04;;;;;;;21.75;13.45;;;;;;;12.62;82.77;100666.03;4856142;29;20065;-71
2022/10/26 02:20:36;;;;;;;21.00;12.35;;;;;;;12.66;83.44;100682.56;4895535;29;20494;-71
2022/10/26 02:23:06;;;;;;;23.00;12.95;;;;;;;12.69;82.85;100687.84;4931039;29;20044;-73
2022/10/26 02:25:37;;;;;;;24.13;13.80;;;;;;;12.74;82.90;100687.97;4915157;29;20126;-71
2022/10/26 02:28:11;;;;;;;23.20;13.05;;;;;;;12.77;82.93;100677.72;4930961;29;20083;-72
2022/10/26 02:30:39;;;;;;;21.73;12.65;;;;;;;12.84;83.00;100681.38;4930925;29;20028;-71
2022/10/26 02:33:07;;;;;;;19.65;12.73;;;;;;;12.59;82.55;100631.41;4930514;29;20107;-71
2022/10/26 02:35:35;;;;;;;22.85;13.00;;;;;;;12.83;81.36;100672.72;4930788;29;20402;-70
2022/10/26 02:38:05;;;;;;;21.65;12.88;;;;;;;12.73;81.41;100684.50;5004448;28;20033;-71
2022/10/26 02:40:32;;;;;;;25.10;13.30;;;;;;;12.61;81.61;100697.94;5064793;28;20036;-70
2022/10/26 02:43:03;;;;;;;18.38;12.38;;;;;;;12.55;81.78;100702.06;5070209;28;20024;-70
2022/10/26 02:45:46;;;;;;;20.77;13.00;;;;;;;12.65;82.12;100708.41;5069884;28;20035;-70
2022/10/26 02:48:13;;;;;;;21.65;12.52;;;;;;;12.57;80.98;100709.06;5070194;28;20029;-71
2022/10/26 02:50:50;;;;;;;25.25;12.90;;;;;;;12.43;80.14;100715.47;5070369;28;20445;-70
2022/10/26 02:53:34;;;;;;;22.02;12.70;;;;;;;12.44;81.04;100720.69;5069792;28;20398;-70
2022/10/26 02:56:07;;;;;;;22.27;12.98;;;;;;;12.42;81.13;100714.59;5059597;28;20036;-70
2022/10/26 02:58:40;;;;;;;23.80;13.35;;;;;;;12.54;81.27;100726.19;5076553;28;20461;-70
2022/10/26 03:01:06;;;;;;;20.90;12.38;;;;;;;12.34;81.37;100682.41;5076579;28;20103;-70
2022/10/26 03:03:32;;;;;;;19.63;13.05;;;;;;;12.61;82.04;100730.72;5076669;28;20021;-70
2022/10/26 03:05:57;;;;;;;23.50;13.18;;;;;;;12.61;81.61;100731.63;5076867;28;20037;-69
2022/10/26 03:08:23;;;;;;;23.75;14.55;;;;;;;12.56;81.09;100727.09;5076022;28;20394;-71
2022/10/26 03:10:48;;;;;;;23.48;13.10;;;;;;;12.52;81.45;100736.47;5076923;28;20090;-71
2022/10/26 03:13:14;;;;;;;23.67;12.88;;;;;;;12.62;80.26;100750.63;5076484;28;20020;-72
2022/10/26 03:15:40;;;;;;;25.33;13.55;;;;;;;12.75;81.43;100750.19;5076847;28;20383;-72
2022/10/26 03:18:06;;;;;;;20.20;12.23;;;;;;;12.57;81.97;100714.22;5076708;28;20020;-71
2022/10/26 03:20:31;;;;;;;22.35;13.20;;;;;;;12.88;81.50;100760.97;5076805;28;20021;-71
2022/10/26 03:22:57;;;;;;;35.10;14.68;;;;;;;12.77;81.54;100753.72;5076420;28;20086;-71
2022/10/26 03:25:23;;;;;;;22.90;13.27;;;;;;;12.70;82.07;100736.22;5076551;28;20394;-72
2022/10/26 03:28:02;;;;;;;24.67;13.70;;;;;;;12.91;81.41;100763.63;5076730;28;20036;-72
2022/10/26 03:30:29;;;;;;;31.00;13.30;;;;;;;12.98;80.61;100770.78;5058654;28;20036;-69
2022/10/26 03:32:54;;;;;;;30.02;13.90;;;;;;;12.97;80.83;100744.81;5076324;28;20051;-71
2022/10/26 03:35:20;;;;;;;24.70;13.30;;;;;;;13.00;79.38;100766.53;5076301;28;20067;-72
2022/10/26 03:37:46;;;;;;;25.77;13.68;;;;;;;12.54;82.29;100762.47;5076450;28;20029;-72
2022/10/26 03:40:11;;;;;;;21.35;13.65;;;;;;;12.55;83.10;100765.09;5076096;28;20021;-71
2022/10/26 03:42:37;;;;;;;24.45;14.23;;;;;;;12.64;82.96;100776.59;5076545;28;20020;-72
2022/10/26 03:45:04;;;;;;;23.88;14.57;;;;;;;12.57;82.54;100778.97;5076337;28;20030;-71
2022/10/26 03:47:29;;;;;;;27.60;13.82;;;;;;;12.18;84.77;100770.72;5058380;28;20017;-71
2022/10/26 03:49:54;;;;;;;25.52;13.57;;;;;;;12.00;84.65;100725.25;5076180;28;20035;-72
2022/10/26 03:52:20;;;;;;;26.52;14.30;;;;;;;12.07;84.66;100731.50;5075875;28;20029;-71
2022/10/26 03:54:45;;;;;;;23.08;13.40;;;;;;;12.27;84.21;100776.19;5071543;28;20049;-70
2022/10/26 03:57:11;;;;;;;24.38;13.70;;;;;;;12.09;84.75;100766.09;5067053;28;20471;-70
2022/10/26 03:59:37;;;;;;;25.95;14.63;;;;;;;12.22;84.43;100770.00;5076242;28;20147;-71
2022/10/26 04:02:03;;;;;;;26.75;15.07;;;;;;;12.32;83.52;100773.78;5076393;28;20055;-70
2022/10/26 04:04:28;;;;;;;25.20;15.07;;;;;;;12.27;82.83;100769.34;5058218;28;20067;-71
2022/10/26 04:06:54;;;;;;;28.27;14.50;;;;;;;12.38;82.93;100785.22;5074338;28;20397;-70
2022/10/26 04:09:19;;;;;;;24.13;15.43;;;;;;;12.25;82.25;100754.56;5073114;28;20027;-72
2022/10/26 04:11:45;;;;;;;22.55;14.07;;;;;;;12.43;80.31;100780.22;5072935;28;20462;-72
2022/10/26 04:14:10;;;;;;;23.70;14.07;;;;;;;12.34;79.04;100777.31;5071646;28;20107;-72
2022/10/26 04:16:36;;;;;;;22.88;13.88;;;;;;;12.32;78.80;100761.72;5072978;28;20028;-72
2022/10/26 04:19:01;;;;;;;26.20;14.32;;;;;;;12.46;79.17;100785.47;5072694;28;20118;-72
2022/10/26 04:21:26;;;;;;;25.23;14.90;;;;;;;12.31;79.80;100762.53;5072350;28;20150;-72
2022/10/26 04:23:52;;;;;;;25.55;14.63;;;;;;;12.43;79.68;100785.38;5072400;28;20032;-72
2022/10/26 04:26:17;;;;;;;28.33;14.98;;;;;;;12.39;79.25;100779.22;5072833;28;20056;-67
2022/10/26 04:28:43;;;;;;;24.50;14.90;;;;;;;12.40;79.24;100780.09;5072655;28;20024;-70
2022/10/26 04:31:08;;;;;;;34.20;14.77;;;;;;;12.11;79.55;100723.91;5072746;28;20464;-71
2022/10/26 04:33:33;;;;;;;25.77;14.40;;;;;;;11.88;80.64;100736.00;5072186;28;20029;-70
2022/10/26 04:36:02;;;;;;;29.00;15.63;;;;;;;12.13;81.11;100784.34;5070650;28;20090;-71
2022/10/26 04:38:28;;;;;;;27.20;15.52;;;;;;;12.05;81.01;100782.31;5072545;28;20111;-71
2022/10/26 04:40:53;;;;;;;23.58;14.77;;;;;;;12.05;81.17;100793.56;5072499;28;20541;-72
2022/10/26 04:43:18;;;;;;;37.72;15.68;;;;;;;12.05;80.91;100816.88;5072529;28;20071;-69
2022/10/26 04:45:44;;;;;;;31.75;15.90;;;;;;;11.90;78.60;100813.66;5070881;28;20016;-71
2022/10/26 04:48:11;;;;;;;29.30;14.80;;;;;;;11.90;79.95;100808.47;5072408;28;20107;-71
2022/10/26 04:50:37;;;;;;;28.73;15.35;;;;;;;11.98;80.59;100814.88;5036300;28;20076;-71
2022/10/26 04:53:05;;;;;;;27.85;15.88;;;;;;;11.99;80.33;100832.16;5072251;28;20382;-71
2022/10/26 04:55:30;;;;;;;29.02;15.57;;;;;;;11.93;80.02;100818.97;5061085;28;20076;-71
2022/10/26 04:57:55;;;;;;;27.45;15.10;;;;;;;11.97;79.16;100847.63;5068507;28;20117;-69
2022/10/26 05:00:21;;;;;;;24.30;15.95;;;;;;;11.92;78.64;100818.06;5071812;28;20024;-72
2022/10/26 05:02:46;;;;;;;47.92;37.85;;;;;;;12.01;79.88;100839.97;5071684;28;20395;-71
2022/10/26 05:05:13;;;;;;;33.83;17.88;;;;;;;11.96;79.99;100842.38;5072064;28;20028;-71
2022/10/26 05:07:38;;;;;;;35.30;22.20;;;;;;;12.06;80.33;100851.38;5070201;28;20096;-72
2022/10/26 05:10:04;;;;;;;33.00;21.58;;;;;;;12.14;80.37;100858.59;5056766;28;20033;-71
2022/10/26 05:12:30;;;;;;;39.60;21.67;;;;;;;11.90;80.70;100861.13;5071813;28;20146;-71
2022/10/26 05:14:57;;;;;;;39.60;20.17;;;;;;;11.59;83.30;100856.47;5062309;28;20478;-71
2022/10/26 05:17:26;;;;;;;30.02;16.02;;;;;;;11.33;85.55;100849.44;5048216;28;20441;-71
2022/10/26 05:19:54;;;;;;;38.85;18.92;;;;;;;11.30;86.79;100840.69;5070279;28;20024;-70
2022/10/26 05:22:21;;;;;;;51.85;28.15;;;;;;;11.46;87.30;100865.44;5071232;28;20483;-71
2022/10/26 05:24:46;;;;;;;56.55;28.20;;;;;;;11.26;87.98;100869.81;5063396;28;20070;-70
2022/10/26 05:27:12;;;;;;;52.75;28.42;;;;;;;11.19;88.15;100860.06;5063435;28;20051;-71
2022/10/26 05:29:37;;;;;;;42.75;24.08;;;;;;;11.21;88.40;100861.88;5071354;28;20482;-71
2022/10/26 05:32:03;;;;;;;43.50;22.23;;;;;;;11.13;89.11;100866.75;5070792;28;20641;-71
2022/10/26 05:34:28;;;;;;;36.30;21.08;;;;;;;11.24;88.77;100854.25;5071339;28;20033;-70
2022/10/26 05:36:54;;;;;;;39.58;18.70;;;;;;;11.42;88.07;100854.09;5071333;28;20029;-71
2022/10/26 05:39:20;;;;;;;31.40;16.70;;;;;;;11.79;86.68;100876.22;5070956;28;20094;-73
2022/10/26 05:41:47;;;;;;;28.27;16.05;;;;;;;11.99;85.76;100883.91;5060280;28;20028;-71
2022/10/26 05:44:15;;;;;;;28.85;15.00;;;;;;;12.06;83.53;100893.69;5060863;28;20052;-73
2022/10/26 05:46:48;;;;;;;26.02;14.90;;;;;;;12.05;82.60;100891.91;5048610;28;20079;-73
2022/10/26 05:49:14;;;;;;;23.75;13.25;;;;;;;11.95;82.95;100907.84;5049740;28;20513;-73
2022/10/26 05:51:40;;;;;;;23.92;14.52;;;;;;;11.98;83.24;100882.16;5036351;28;20502;-71
2022/10/26 05:54:05;;;;;;;20.73;13.70;;;;;;;12.26;82.51;100894.41;5048222;28;20045;-71
2022/10/26 05:56:39;;;;;;;21.60;13.60;;;;;;;12.42;82.03;100897.56;5050458;28;20025;-72
2022/10/26 05:59:11;;;;;;;29.90;13.80;;;;;;;12.49;81.20;100872.78;5038141;28;20036;-72
2022/10/26 06:01:54;;;;;;;23.40;13.25;;;;;;;12.75;81.69;100897.88;5059815;28;20116;-73
2022/10/26 06:04:42;;;;;;;26.33;13.43;;;;;;;12.95;81.55;100902.88;5035987;28;20033;-70
2022/10/26 06:07:13;;;;;;;26.02;14.52;;;;;;;13.14;81.45;100893.13;5028679;28;20034;-74
2022/10/26 06:09:39;;;;;;;24.33;14.23;;;;;;;13.35;81.28;100911.97;5026163;28;20025;-74
2022/10/26 06:12:06;;;;;;;28.05;14.73;;;;;;;13.55;82.68;100910.06;5032191;28;20029;-73
2022/10/26 06:14:33;;;;;;;24.67;14.13;;;;;;;13.36;83.29;100846.31;5029650;28;20033;-71
2022/10/26 06:17:26;;;;;;;29.40;15.30;;;;;;;13.52;83.53;100901.28;5030334;28;20061;-74
2022/10/26 06:20:20;;;;;;;34.60;19.33;;;;;;;13.68;83.43;100923.41;5034582;28;20021;-73
2022/10/26 06:22:56;;;;;;;30.00;16.35;;;;;;;13.61;83.83;100930.13;5030043;28;20394;-73
2022/10/26 06:25:51;;;;;;;29.38;15.27;;;;;;;13.56;83.63;100910.94;5030011;28;20079;-74
2022/10/26 06:28:35;;;;;;;26.40;15.48;;;;;;;13.80;83.19;100912.56;5030140;28;20057;-74
2022/10/26 06:31:00;;;;;;;35.03;14.27;;;;;;;13.48;81.44;100840.66;5029219;28;20553;-74
2022/10/26 06:33:27;;;;;;;23.92;14.07;;;;;;;13.91;80.87;100927.59;5044934;28;20077;-73
2022/10/26 06:36:01;;;;;;;24.88;12.93;;;;;;;14.17;79.35;100931.84;5032845;28;20533;-73
2022/10/26 06:38:28;;;;;;;26.17;12.93;;;;;;;14.42;78.01;100928.22;5060688;28;20482;-76
2022/10/26 06:40:56;;;;;;;25.38;13.30;;;;;;;14.74;76.93;100930.00;5051830;28;20395;-74
2022/10/26 06:43:28;;;;;;;28.27;13.23;;;;;;;14.99;75.72;100937.63;5054742;28;20035;-74
2022/10/26 06:46:19;;;;;;;28.98;12.60;;;;;;;15.20;74.18;100941.59;5054229;28;20035;-74
2022/10/26 06:49:11;;;;;;;26.80;11.68;;;;;;;15.20;73.74;100923.38;5061056;28;20033;-74
2022/10/26 06:51:57;;;;;;;25.20;11.68;;;;;;;15.42;73.44;100932.63;5059718;28;20419;-72
2022/10/26 06:54:50;;;;;;;24.63;12.23;;;;;;;15.65;73.30;100942.69;5049559;28;20057;-72
2022/10/26 06:57:20;;;;;;;27.15;11.70;;;;;;;15.90;71.71;100952.00;5049165;28;20135;-70
2022/10/26 06:59:51;;;;;;;28.10;12.75;;;;;;;16.00;71.22;100933.13;5049893;28;20033;-70
2022/10/26 07:02:17;;;;;;;100.43;17.13;;;;;;;16.19;70.34;100941.34;5050558;28;20025;-74
2022/10/26 07:04:43;;;;;;;27.98;11.80;;;;;;;16.29;70.12;100958.94;5043557;28;20403;-74
2022/10/26 07:07:18;;;;;;;24.45;11.85;;;;;;;16.46;69.19;100950.56;5030462;28;20032;-73
2022/10/26 07:09:43;;;;;;;30.58;12.65;;;;;;;16.52;69.54;100949.84;5034438;28;20021;-72
2022/10/26 07:12:09;;;;;;;32.15;11.60;;;;;;;16.27;70.49;100950.19;5049672;28;20071;-71
2022/10/26 07:14:34;;;;;;;27.00;12.38;;;;;;;16.56;69.33;100955.16;5049838;28;20384;-71
2022/10/26 07:17:00;;;;;;;27.02;10.88;;;;;;;16.62;68.77;100956.97;5049732;28;20057;-70
2022/10/26 07:19:26;;;;;;;24.38;11.13;;;;;;;16.79;67.27;100952.97;5049387;28;20522;-73
2022/10/26 07:21:55;;;;;;;24.35;11.20;;;;;;;16.85;66.73;100947.00;5014877;28;20124;-73
2022/10/26 07:24:22;;;;;;;31.20;11.85;;;;;;;17.13;66.60;100955.38;5050058;28;20033;-73
2022/10/26 07:26:47;;;;;;;20.48;10.23;;;;;;;17.21;66.25;100958.09;5049922;28;20045;-73
2022/10/26 07:29:15;;;;;;;26.23;10.68;;;;;;;17.39;65.59;100957.56;5049459;28;20231;-72
2022/10/26 07:31:40;;;;;;;26.23;10.73;;;;;;;17.51;65.43;100962.09;5047089;28;20151;-70
2022/10/26 07:34:06;;;;;;;23.80;10.75;;;;;;;17.29;65.42;100930.41;5049412;28;20111;-70
2022/10/26 07:36:31;;;;;;;25.80;11.40;;;;;;;17.32;66.07;100956.59;5046746;28;20471;-70
2022/10/26 07:38:57;;;;;;;21.88;10.07;;;;;;;17.35;65.24;100929.66;5049429;28;20100;-73
2022/10/26 07:41:22;;;;;;;25.42;11.02;;;;;;;17.71;64.61;100954.59;5049493;28;20391;-70
2022/10/26 07:43:49;;;;;;;25.17;10.23;;;;;;;17.97;64.33;100955.00;5053510;28;20033;-74
2022/10/26 07:46:16;;;;;;;25.83;10.85;;;;;;;17.84;64.10;100924.31;5053982;28;20094;-73
2022/10/26 07:48:41;;;;;;;26.73;10.23;;;;;;;18.11;63.83;100947.34;5054013;28;20386;-70
2022/10/26 07:51:07;;;;;;;23.33;10.18;;;;;;;18.26;63.26;100955.38;5051510;28;20013;-73
2022/10/26 07:53:33;;;;;;;23.98;10.38;;;;;;;18.43;60.94;100954.75;5052850;28;20490;-71
2022/10/26 07:55:58;;;;;;;17.23;9.27;;;;;;;18.48;61.78;100955.69;5052807;28;20035;-73
2022/10/26 07:58:25;;;;;;;23.42;9.05;;;;;;;18.56;60.56;100955.75;5052933;28;20025;-71
2022/10/26 08:00:52;;;;;;;19.08;8.63;;;;;;;18.42;60.72;100924.22;5053206;28;20406;-73
2022/10/26 08:03:17;;;;;;;18.23;8.25;;;;;;;18.70;59.89;100948.94;5053400;28;20505;-70
2022/10/26 08:05:50;;;;;;;20.63;7.95;;;;;;;18.88;58.64;100948.28;5053638;28;20025;-70
2022/10/26 08:08:16;;;;;;;18.67;8.32;;;;;;;19.10;57.88;100948.50;5035270;28;20502;-72
2022/10/26 08:10:43;;;;;;;18.52;7.68;;;;;;;19.26;57.83;100946.03;5051296;28;20021;-71
2022/10/26 08:13:09;;;;;;;16.13;7.82;;;;;;;19.31;57.55;100945.22;5052826;28;20032;-74
2022/10/26 08:15:35;;;;;;;15.48;6.97;;;;;;;19.39;57.01;100942.69;5052861;28;20028;-74
2022/10/26 08:18:00;;;;;;;15.57;7.25;;;;;;;19.50;56.03;100933.16;5052715;28;20017;-73
2022/10/26 08:20:26;;;;;;;12.68;6.50;;;;;;;19.59;55.32;100940.22;5053256;28;20043;-74
2022/10/26 08:22:51;;;;;;;14.15;6.10;;;;;;;19.78;54.74;100951.69;5053266;28;20036;-70
2022/10/26 08:25:17;;;;;;;23.45;6.63;;;;;;;19.88;55.05;100943.03;5051753;28;20449;-74
2022/10/26 08:27:43;;;;;;;14.95;6.45;;;;;;;19.97;54.16;100941.34;5053077;28;20025;-73
2022/10/26 08:30:09;;;;;;;15.05;6.35;;;;;;;19.97;54.22;100926.50;5053007;28;20029;-73
2022/10/26 08:32:34;;;;;;;17.00;6.00;;;;;;;20.22;54.39;100958.06;5014325;28;20059;-71
2022/10/26 08:35:00;;;;;;;12.20;6.35;;;;;;;20.33;52.62;100952.91;5050214;28;20025;-73
2022/10/26 08:37:26;;;;;;;13.30;5.72;;;;;;;20.39;52.60;100947.66;5051705;28;20025;-73
2022/10/26 08:39:51;;;;;;;14.13;5.78;;;;;;;20.42;51.70;100931.94;5052248;28;20029;-73
2022/10/26 08:42:24;;;;;;;13.20;6.00;;;;;;;20.56;51.56;100952.09;5052504;28;20075;-73
2022/10/26 08:44:57;;;;;;;10.45;4.78;;;;;;;20.64;50.33;100953.00;5052140;28;20454;-73
2022/10/26 08:47:29;;;;;;;13.52;5.90;;;;;;;20.72;50.53;100956.53;5052588;28;20242;-72
2022/10/26 08:50:18;;;;;;;12.70;5.60;;;;;;;20.75;50.07;100945.19;5051938;28;20029;-72
2022/10/26 08:52:52;;;;;;;9.63;5.03;;;;;;;20.77;49.18;100915.47;5052042;28;20036;-72
2022/10/26 08:55:23;;;;;;;8.13;4.60;;;;;;;21.15;48.59;100964.50;5051516;28;20597;-72
2022/10/26 08:57:48;;;;;;;10.13;4.88;;;;;;;21.21;50.40;100960.13;5052285;28;20062;-73
2022/10/26 09:00:18;;;;;;;13.38;4.93;;;;;;;21.29;49.67;100953.16;5052230;28;20112;-73
2022/10/26 09:02:48;;;;;;;13.52;5.10;;;;;;;21.39;50.48;100954.91;5049776;28;20017;-73
2022/10/26 09:05:16;;;;;;;12.45;4.65;;;;;;;21.39;48.28;100957.53;5051602;28;20036;-72
2022/10/26 09:08:03;;;;;;;10.47;4.40;;;;;;;21.45;48.69;100949.66;5052410;28;20025;-72
2022/10/26 09:10:52;;;;;;;11.05;4.70;;;;;;;21.42;47.99;100952.28;5051142;28;20024;-70
2022/10/26 09:13:32;;;;;;;11.45;4.72;;;;;;;21.49;49.98;100959.25;5051637;28;20052;-71
2022/10/26 09:16:10;;;;;;;10.10;4.38;;;;;;;21.51;47.28;100954.03;5049599;28;20548;-75
2022/10/26 09:19:05;;;;;;;11.10;4.43;;;;;;;21.54;49.12;100950.53;5049073;28;20021;-74
2022/10/26 09:21:54;;;;;;;8.85;4.10;;;;;;;21.67;46.70;100954.94;5051040;28;20040;-72
2022/10/26 09:24:22;;;;;;;8.70;3.97;;;;;;;21.78;50.58;100947.91;5049352;28;20032;-72
2022/10/26 09:26:54;;;;;;;15.43;4.70;;;;;;;21.84;48.73;100944.38;5049003;28;20053;-73
2022/10/26 09:29:27;;;;;;;18.83;4.20;;;;;;;21.93;46.74;100932.97;5050520;28;20416;-72
2022/10/26 09:31:55;;;;;;;9.00;4.28;;;;;;;21.80;47.50;100938.25;5049284;28;20502;-75
2022/10/26 09:34:36;;;;;;;9.52;4.32;;;;;;;21.96;47.59;100932.97;5051283;28;20036;-75
2022/10/26 09:37:14;;;;;;;10.85;4.15;;;;;;;22.02;45.59;100924.16;5050601;28;20092;-75
2022/10/26 09:39:47;;;;;;;12.90;4.55;;;;;;;22.20;45.19;100931.13;5050738;28;20033;-77
2022/10/26 09:42:40;;;;;;;9.77;4.93;;;;;;;22.38;46.09;100935.47;5050036;28;20024;-71
2022/10/26 09:45:24;;;;;;;8.07;4.07;;;;;;;22.64;44.55;100932.69;4973346;28;20073;-70
2022/10/26 09:47:52;;;;;;;11.90;4.30;;;;;;;22.78;44.36;100936.13;4977777;28;20038;-71
2022/10/26 09:50:29;;;;;;;12.23;4.28;;;;;;;22.58;44.04;100898.53;4978556;28;20172;-73
2022/10/26 09:52:55;;;;;;;11.32;4.50;;;;;;;;;;4979775;28;20037;-78
2022/10/26 09:55:21;;;;;;;14.52;4.28;;;;;;;23.14;42.80;100922.75;4977981;28;20058;-74
2022/10/26 09:57:52;;;;;;;13.55;4.18;;;;;;;23.33;42.86;100928.75;4970045;28;20058;-76
2022/10/26 10:00:20;;;;;;;11.85;4.20;;;;;;;23.45;42.43;100922.47;4976666;28;20046;-75
2022/10/26 10:02:52;;;;;;;9.30;3.38;;;;;;;23.43;41.94;100922.50;4977383;28;20039;-73
2022/10/26 10:05:23;;;;;;;10.85;3.05;;;;;;;23.52;41.33;100918.03;4976753;28;20026;-74
2022/10/26 10:07:49;;;;;;;12.00;4.07;;;;;;;23.61;41.56;100914.44;4980039;28;20061;-73
2022/10/26 10:10:17;;;;;;;9.38;2.65;;;;;;;23.75;41.52;100915.16;4980033;28;20046;-73
2022/10/26 10:12:44;;;;;;;7.03;2.42;;;;;;;23.68;41.21;100874.81;4979264;28;20034;-71
2022/10/26 10:15:22;;;;;;;8.07;2.42;;;;;;;23.89;40.89;100897.44;4978273;28;20544;-72
2022/10/26 10:17:54;;;;;;;8.85;2.67;;;;;;;23.87;40.20;100899.22;4975529;28;20027;-74
2022/10/26 10:20:23;;;;;;;7.82;2.45;;;;;;;23.81;40.41;100904.53;4977522;28;20591;-69
2022/10/26 10:23:00;;;;;;;10.48;2.30;;;;;;;23.95;40.14;100903.56;5035364;28;20545;-71
2022/10/26 10:25:35;;;;;;;6.20;2.70;;;;;;;23.93;40.41;100903.59;5050884;28;20025;-73
2022/10/26 10:28:01;;;;;;;8.27;2.50;;;;;;;23.98;39.73;100901.75;5050293;28;20446;-73
2022/10/26 10:30:30;;;;;;;6.60;2.53;;;;;;;24.03;39.94;100899.94;5050776;28;20431;-73
2022/10/26 10:33:09;;;;;;;7.65;2.33;;;;;;;24.06;40.11;100893.75;5050966;28;20057;-74
2022/10/26 10:35:35;;;;;;;8.93;2.70;;;;;;;24.12;39.24;100892.81;5050479;28;20094;-73
2022/10/26 10:38:01;;;;;;;9.32;2.42;;;;;;;24.00;39.43;100899.09;5050908;28;20033;-73
2022/10/26 10:40:30;;;;;;;3.92;2.20;;;;;;;23.99;39.39;100881.53;5031413;28;20044;-72
2022/10/26 10:43:12;;;;;;;4.72;2.22;;;;;;;24.15;40.72;100896.28;5050840;28;20033;-70
2022/10/26 10:45:39;;;;;;;4.78;2.00;;;;;;;24.17;38.92;100872.53;5050312;28;20569;-75
2022/10/26 10:48:15;;;;;;;7.75;2.20;;;;;;;24.30;38.61;100875.84;5050565;28;20103;-72
2022/10/26 10:50:55;;;;;;;6.57;2.00;;;;;;;24.05;39.08;100842.78;5050256;28;20033;-74
2022/10/26 10:53:24;;;;;;;4.22;2.10;;;;;;;24.36;38.73;100878.41;5050043;28;20075;-75
2022/10/26 10:56:01;;;;;;;5.15;1.92;;;;;;;24.47;38.96;100865.94;5050272;28;20025;-71
2022/10/26 10:58:39;;;;;;;10.13;2.13;;;;;;;24.31;38.33;100869.69;5050315;28;20120;-72
2022/10/26 11:01:12;;;;;;;5.32;2.13;;;;;;;24.43;38.17;100869.53;5050223;28;20730;-72
2022/10/26 11:04:04;;;;;;;6.97;2.20;;;;;;;24.56;38.87;100862.28;5050098;28;20406;-74
2022/10/26 11:06:35;;;;;;;3.90;1.90;;;;;;;24.76;37.90;100866.44;4952800;28;20035;-74
2022/10/26 11:09:06;;;;;;;7.57;1.90;;;;;;;24.91;38.42;100860.94;4969134;28;20043;-72
2022/10/26 11:11:43;;;;;;;7.65;2.15;;;;;;;25.07;38.11;100863.28;4969009;28;20070;-74
2022/10/26 11:14:28;;;;;;;6.95;2.13;;;;;;;25.11;37.28;100865.88;4969072;28;20026;-76
2022/10/26 11:17:11;;;;;;;5.13;2.22;;;;;;;25.03;37.53;100865.13;4971166;28;20042;-74
2022/10/26 11:19:44;;;;;;;7.43;2.10;;;;;;;25.08;37.11;100865.03;4973162;28;20041;-73
2022/10/26 11:22:14;;;;;;;4.72;1.92;;;;;;;24.96;36.59;100851.16;4972990;28;20044;-74
2022/10/26 11:24:53;;;;;;;6.45;2.33;;;;;;;25.08;37.99;100863.25;4972833;28;20045;-74
2022/10/26 11:27:30;;;;;;;4.03;2.17;;;;;;;25.27;36.95;100860.31;4983318;28;20544;-75
2022/10/26 11:30:05;;;;;;;6.78;2.35;;;;;;;25.26;37.65;100864.72;4985132;28;20118;-75
2022/10/26 11:32:42;;;;;;;3.28;2.20;;;;;;;25.31;36.49;100854.06;4972675;28;20034;-74